Time;durP1;ratioP1;P1;durP2;ratioP2;P2;SDS_P1;SDS_P2;PMS_P1;PMS_P2;Temp;Humidity;BMP_temperature;BMP_pressure;BME280_temperature;BME280_humidity;BME280_pressure;Samples;Min_cycle;Max_cycle;Signal;HPM_P1;HPM_P2
2022/08/10 00:00:21;;;;;;;;;;;;;;;;;;5065774;28;19980;-82
2022/08/10 00:02:48;;;;;;;;;;;;;;;;;;5078092;28;19978;-81
2022/08/10 00:05:15;;;;;;;;;;;;;;;;;;5072440;28;19985;-81
2022/08/10 00:07:41;;;;;;;;;;;;;;;;;;5057327;28;19994;-82
2022/08/10 00:10:08;;;;;;;;;;;;;;;;;;5056581;28;19972;-81
2022/08/10 00:12:35;;;;;;;;;;;;;;;;;;5054919;28;19925;-81
2022/08/10 00:15:03;;;;;;;;;;;;;;;;;;5054858;28;19924;-81
2022/08/10 00:17:29;;;;;;;;;;;;;;;;;;5062017;28;19925;-80
2022/08/10 00:19:56;;;;;;;;;;;;;;;;;;5078139;28;19964;-81
2022/08/10 00:22:22;;;;;;;;;;;;;;;;;;5079178;28;20016;-81
2022/08/10 00:24:49;;;;;;;;;;;;;;;;;;5079196;28;19948;-82
2022/08/10 00:27:15;;;;;;;;;;;;;;;;;;5079211;28;20015;-80
2022/08/10 00:29:42;;;;;;;;;;;;;;;;;;5079369;28;19995;-81
2022/08/10 00:32:10;;;;;;;;;;;;;;;;;;5079205;28;19975;-82
2022/08/10 00:34:36;;;;;;;;;;;;;;;;;;5073408;28;20055;-81
2022/08/10 00:37:03;;;;;;;;;;;;;;;;;;5060565;28;19929;-81
2022/08/10 00:39:29;;;;;;;;;;;;;;;;;;5065522;28;19952;-82
2022/08/10 00:41:56;;;;;;;;;;;;;;;;;;5086273;28;19924;-82
2022/08/10 00:44:22;;;;;;;;;;;;;;;;;;5085973;28;19925;-82
2022/08/10 00:46:49;;;;;;;;;;;;;;;;;;5067060;28;19925;-81
2022/08/10 00:49:17;;;;;;;;;;;;;;;;;;5080034;28;20353;-82
2022/08/10 00:51:44;;;;;;;;;;;;;;;;;;5061215;28;19925;-81
2022/08/10 00:54:11;;;;;;;;;;;;;;;;;;5060284;28;19964;-82
2022/08/10 00:56:37;;;;;;;;;;;;;;;;;;5060312;28;19947;-82
2022/08/10 00:59:04;;;;;;;;;;;;;;;;;;5063720;28;19925;-84
2022/08/10 01:01:30;;;;;;;;;;;;;;;;;;5071673;28;19936;-82
2022/08/10 01:03:57;;;;;;;;;;;;;;;;;;5079144;28;19928;-81
2022/08/10 01:06:29;;;;;;;;;;;;;;;;;;5061475;28;19924;-81
2022/08/10 01:09:02;;;;;;;;;;;;;;;;;;5060141;28;19975;-81
2022/08/10 01:11:32;;;;;;;;;;;;;;;;;;5078765;28;19972;-83
2022/08/10 01:14:03;;;;;;;;;;;;;;;;;;5061438;28;19978;-82
2022/08/10 01:16:32;;;;;;;;;;;;;;;;;;5078675;28;19962;-82
2022/08/10 01:19:03;;;;;;;;;;;;;;;;;;5080297;28;19967;-83
2022/08/10 01:21:40;;;;;;;;;;;;;;;;;;5081331;28;19924;-80
2022/08/10 01:24:18;;;;;;;;;;;;;;;;;;5077929;28;20035;-80
2022/08/10 01:26:57;;;;;;;;;;;;;;;;;;5080848;28;19924;-80
2022/08/10 01:29:42;;;;;;;;;;;;;;;;;;5068609;28;19924;-80
2022/08/10 01:32:11;;;;;;;;;;;;;;;;;;5061160;28;19925;-81
2022/08/10 01:34:42;;;;;;;;;;;;;;;;;;5060085;28;19925;-81
2022/08/10 01:37:14;;;;;;;;;;;;;;;;;;5058670;28;19975;-80
2022/08/10 01:39:43;;;;;;;;;;;;;;;;;;5072502;28;19925;-81
2022/08/10 01:42:12;;;;;;;;;;;;;;;;;;5077885;28;19924;-81
2022/08/10 01:44:40;;;;;;;;;;;;;;;;;;5064019;28;20403;-81
2022/08/10 01:49:55;;;;;;;;;;;;;;;;;;5057261;28;19992;-82
2022/08/10 01:52:23;;;;;;;;;;;;;;;;;;5058198;28;19974;-82
2022/08/10 01:54:51;;;;;;;;;;;;;;;;;;5057735;28;19947;-83
2022/08/10 01:57:18;;;;;;;;;;;;;;;;;;5068523;28;19946;-82
2022/08/10 01:59:45;;;;;;;;;;;;;;;;;;5066712;28;19924;-83
2022/08/10 02:02:13;;;;;;;;;;;;;;;;;;5067391;28;20470;-80
2022/08/10 02:04:41;;;;;;;;;;;;;;;;;;5077704;28;19951;-81
2022/08/10 02:07:11;;;;;;;;;;;;;;;;;;5079302;28;19925;-82
2022/08/10 02:09:39;;;;;;;;;;;;;;;;;;5081302;28;19924;-81
2022/08/10 02:12:07;;;;;;;;;;;;;;;;;;5083270;28;19924;-80
2022/08/10 02:14:35;;;;;;;;;;;;;;;;;;5083869;28;20401;-80
2022/08/10 02:17:02;;;;;;;;;;;;;;;;;;5079041;28;20414;-81
2022/08/10 02:19:30;;;;;;;;;;;;;;;;;;5071151;28;19932;-80
2022/08/10 02:21:58;;;;;;;;;;;;;;;;;;5064337;28;20335;-80
2022/08/10 02:24:27;;;;;;;;;;;;;;;;;;5058277;28;19993;-82
2022/08/10 02:26:54;;;;;;;;;;;;;;;;;;5066310;28;19925;-83
2022/08/10 02:29:21;;;;;;;;;;;;;;;;;;5065890;28;19932;-81
2022/08/10 02:31:48;;;;;;;;;;;;;;;;;;5064568;28;20457;-81
2022/08/10 02:34:15;;;;;;;;;;;;;;;;;;5077533;28;19932;-80
2022/08/10 02:36:44;;;;;;;;;;;;;;;;;;5073888;28;19967;-81
2022/08/10 02:39:11;;;;;;;;;;;;;;;;;;5058730;28;20399;-79
2022/08/10 02:41:40;;;;;;;;;;;;;;;;;;5056986;28;20004;-81
2022/08/10 02:44:09;;;;;;;;;;;;;;;;;;5059098;28;20418;-80
2022/08/10 02:46:39;;;;;;;;;;;;;;;;;;5067253;28;19936;-80
2022/08/10 02:49:06;;;;;;;;;;;;;;;;;;5071116;28;20449;-81
2022/08/10 02:51:36;;;;;;;;;;;;;;;;;;5060460;28;19925;-80
2022/08/10 02:54:06;;;;;;;;;;;;;;;;;;5068709;28;19924;-81
2022/08/10 02:56:35;;;;;;;;;;;;;;;;;;5063052;28;19971;-82
2022/08/10 02:59:06;;;;;;;;;;;;;;;;;;5060469;28;19932;-80
2022/08/10 03:01:34;;;;;;;;;;;;;;;;;;5077657;28;19925;-83
2022/08/10 03:04:02;;;;;;;;;;;;;;;;;;5077837;28;19933;-81
2022/08/10 03:06:33;;;;;;;;;;;;;;;;;;5078290;28;19913;-83
2022/08/10 03:09:00;;;;;;;;;;;;;;;;;;5074160;28;19920;-82
2022/08/10 03:11:28;;;;;;;;;;;;;;;;;;5068048;28;19935;-82
2022/08/10 03:13:55;;;;;;;;;;;;;;;;;;5061217;28;19987;-81
2022/08/10 03:16:23;;;;;;;;;;;;;;;;;;5060526;28;19968;-82
2022/08/10 03:18:50;;;;;;;;;;;;;;;;;;5061971;28;19924;-82
2022/08/10 03:21:19;;;;;;;;;;;;;;;;;;5065034;28;19925;-81
2022/08/10 03:23:45;;;;;;;;;;;;;;;;;;5082552;28;20407;-81
2022/08/10 03:26:12;;;;;;;;;;;;;;;;;;5089481;28;19929;-80
2022/08/10 03:28:39;;;;;;;;;;;;;;;;;;5081080;28;20404;-79
2022/08/10 03:31:05;;;;;;;;;;;;;;;;;;5067476;28;19925;-80
2022/08/10 03:33:35;;;;;;;;;;;;;;;;;;5067724;28;19947;-81
2022/08/10 03:36:01;;;;;;;;;;;;;;;;;;5070679;28;19925;-81
2022/08/10 03:38:28;;;;;;;;;;;;;;;;;;5097438;28;19916;-82
2022/08/10 03:40:56;;;;;;;;;;;;;;;;;;5097228;28;19940;-83
2022/08/10 03:43:24;;;;;;;;;;;;;;;;;;5073680;28;19909;-81
2022/08/10 03:45:52;;;;;;;;;;;;;;;;;;5076249;28;19931;-79
2022/08/10 03:48:19;;;;;;;;;;;;;;;;;;5092863;28;19923;-80
2022/08/10 03:50:47;;;;;;;;;;;;;;;;;;5097670;28;19912;-84
2022/08/10 03:53:15;;;;;;;;;;;;;;;;;;5095967;28;20275;-79
2022/08/10 03:55:41;;;;;;;;;;;;;;;;;;5092232;28;19935;-80
2022/08/10 03:58:08;;;;;;;;;;;;;;;;;;5100429;28;19924;-84
2022/08/10 04:00:35;;;;;;;;;;;;;;;;;;5087006;28;19950;-82
2022/08/10 04:03:03;;;;;;;;;;;;;;;;;;5100584;28;19909;-80
2022/08/10 04:05:29;;;;;;;;;;;;;;;;;;5101294;28;19922;-82
2022/08/10 04:07:58;;;;;;;;;;;;;;;;;;5101592;28;19931;-81
2022/08/10 04:10:25;;;;;;;;;;;;;;;;;;5101603;28;19909;-80
2022/08/10 04:12:51;;;;;;;;;;;;;;;;;;5099667;28;19925;-82
2022/08/10 04:15:18;;;;;;;;;;;;;;;;;;5096101;28;19924;-81
2022/08/10 04:17:44;;;;;;;;;;;;;;;;;;5091838;28;19925;-81
2022/08/10 04:20:16;;;;;;;;;;;;;;;;;;5076805;28;19928;-83
2022/08/10 04:22:43;;;;;;;;;;;;;;;;;;5078083;28;20028;-82
2022/08/10 04:25:12;;;;;;;;;;;;;;;;;;5078056;28;19925;-81
2022/08/10 04:27:38;;;;;;;;;;;;;;;;;;5076959;28;19924;-81
2022/08/10 04:30:05;;;;;;;;;;;;;;;;;;5077009;28;19924;-80
2022/08/10 04:32:33;;;;;;;;;;;;;;;;;;5075491;28;19936;-82
2022/08/10 04:34:59;;;;;;;;;;;;;;;;;;5076516;28;19925;-82
2022/08/10 04:37:27;;;;;;;;;;;;;;;;;;5092316;28;19928;-82
2022/08/10 04:39:53;;;;;;;;;;;;;;;;;;5091340;28;19952;-81
2022/08/10 04:42:21;;;;;;;;;;;;;;;;;;5091663;28;20199;-82
2022/08/10 04:44:49;;;;;;;;;;;;;;;;;;5093029;28;19931;-83
2022/08/10 04:47:15;;;;;;;;;;;;;;;;;;5096764;28;19924;-83
2022/08/10 04:49:42;;;;;;;;;;;;;;;;;;5098488;28;19928;-81
2022/08/10 04:52:08;;;;;;;;;;;;;;;;;;5100791;28;19908;-81
2022/08/10 04:54:35;;;;;;;;;;;;;;;;;;5100810;28;19936;-82
2022/08/10 04:57:01;;;;;;;;;;;;;;;;;;5100280;28;19909;-81
2022/08/10 04:59:29;;;;;;;;;;;;;;;;;;5100583;28;19925;-81
2022/08/10 05:01:56;;;;;;;;;;;;;;;;;;5101077;28;19935;-81
2022/08/10 05:04:22;;;;;;;;;;;;;;;;;;5100004;28;19909;-81
2022/08/10 05:06:49;;;;;;;;;;;;;;;;;;5100071;28;19924;-81
2022/08/10 05:09:16;;;;;;;;;;;;;;;;;;5097230;28;19971;-80
2022/08/10 05:11:42;;;;;;;;;;;;;;;;;;5087300;28;19925;-82
2022/08/10 05:14:09;;;;;;;;;;;;;;;;;;5087206;28;19928;-82
2022/08/10 05:16:39;;;;;;;;;;;;;;;;;;5071666;28;19925;-81
2022/08/10 05:19:05;;;;;;;;;;;;;;;;;;5068704;28;19979;-81
2022/08/10 05:21:32;;;;;;;;;;;;;;;;;;5068642;28;19932;-82
2022/08/10 05:24:03;;;;;;;;;;;;;;;;;;5066820;28;19932;-82
2022/08/10 05:26:30;;;;;;;;;;;;;;;;;;5097171;28;19908;-81
2022/08/10 05:28:56;;;;;;;;;;;;;;;;;;5093980;28;19924;-80
2022/08/10 05:31:22;;;;;;;;;;;;;;;;;;5096626;28;19908;-81
2022/08/10 05:33:50;;;;;;;;;;;;;;;;;;5095506;28;19925;-81
2022/08/10 05:36:17;;;;;;;;;;;;;;;;;;5076675;28;19925;-80
2022/08/10 05:38:44;;;;;;;;;;;;;;;;;;5072516;28;19976;-81
2022/08/10 05:41:10;;;;;;;;;;;;;;;;;;5079933;28;19940;-81
2022/08/10 05:43:37;;;;;;;;;;;;;;;;;;5061485;28;19925;-81
2022/08/10 05:46:04;;;;;;;;;;;;;;;;;;5056618;28;19998;-82
2022/08/10 05:48:30;;;;;;;;;;;;;;;;;;5056949;28;19956;-82
2022/08/10 05:50:58;;;;;;;;;;;;;;;;;;5055807;28;19972;-82
2022/08/10 05:53:24;;;;;;;;;;;;;;;;;;5056169;28;20547;-82
2022/08/10 05:55:51;;;;;;;;;;;;;;;;;;5056229;28;19998;-81
2022/08/10 05:58:18;;;;;;;;;;;;;;;;;;5056187;28;20001;-81
2022/08/10 06:00:46;;;;;;;;;;;;;;;;;;5056560;28;19929;-81
2022/08/10 06:03:14;;;;;;;;;;;;;;;;;;5060569;28;20400;-80
2022/08/10 06:05:43;;;;;;;;;;;;;;;;;;5054892;28;19925;-82
2022/08/10 06:08:13;;;;;;;;;;;;;;;;;;5073659;28;20370;-80
2022/08/10 06:10:40;;;;;;;;;;;;;;;;;;5055189;28;20489;-81
2022/08/10 06:15:52;;;;;;;;;;;;;;;;;;5054743;28;19931;-80
2022/08/10 06:18:19;;;;;;;;;;;;;;;;;;5059131;28;19964;-82
2022/08/10 06:20:46;;;;;;;;;;;;;;;;;;5077130;28;19925;-82
2022/08/10 06:23:14;;;;;;;;;;;;;;;;;;5089668;28;19925;-81
2022/08/10 06:25:41;;;;;;;;;;;;;;;;;;5078490;28;19973;-82
2022/08/10 06:28:08;;;;;;;;;;;;;;;;;;5061332;28;19925;-82
2022/08/10 06:30:35;;;;;;;;;;;;;;;;;;5059549;28;20024;-82
2022/08/10 06:33:02;;;;;;;;;;;;;;;;;;5059588;28;20015;-83
2022/08/10 06:35:31;;;;;;;;;;;;;;;;;;5060821;28;19924;-82
2022/08/10 06:37:59;;;;;;;;;;;;;;;;;;5061379;28;19983;-83
2022/08/10 06:40:27;;;;;;;;;;;;;;;;;;5077519;28;19924;-82
2022/08/10 06:42:54;;;;;;;;;;;;;;;;;;5081561;28;19990;-82
2022/08/10 06:45:22;;;;;;;;;;;;;;;;;;5080065;28;20023;-81
2022/08/10 06:47:49;;;;;;;;;;;;;;;;;;5080976;28;19946;-83
2022/08/10 06:50:18;;;;;;;;;;;;;;;;;;5067933;28;19997;-83
2022/08/10 06:52:46;;;;;;;;;;;;;;;;;;5061200;28;19929;-80
2022/08/10 06:55:14;;;;;;;;;;;;;;;;;;5059490;28;19925;-79
2022/08/10 06:57:42;;;;;;;;;;;;;;;;;;5058823;28;20306;-81
2022/08/10 07:00:10;;;;;;;;;;;;;;;;;;5057913;28;19978;-81
2022/08/10 07:02:41;;;;;;;;;;;;;;;;;;5074643;28;19970;-80
2022/08/10 07:05:09;;;;;;;;;;;;;;;;;;5079273;28;19924;-81
2022/08/10 07:07:36;;;;;;;;;;;;;;;;;;5080956;28;19959;-79
2022/08/10 07:10:03;;;;;;;;;;;;;;;;;;5070289;28;19925;-81
2022/08/10 07:12:31;;;;;;;;;;;;;;;;;;5058629;28;19925;-80
2022/08/10 07:15:00;;;;;;;;;;;;;;;;;;5056603;28;20033;-80
2022/08/10 07:17:27;;;;;;;;;;;;;;;;;;5058296;28;19951;-82
2022/08/10 07:19:55;;;;;;;;;;;;;;;;;;5078270;28;19928;-81
2022/08/10 07:22:23;;;;;;;;;;;;;;;;;;5075416;28;19924;-80
2022/08/10 07:24:51;;;;;;;;;;;;;;;;;;5076774;28;20525;-80
2022/08/10 07:27:17;;;;;;;;;;;;;;;;;;5077876;28;20050;-81
2022/08/10 07:29:44;;;;;;;;;;;;;;;;;;5074013;28;19929;-80
2022/08/10 07:32:13;;;;;;;;;;;;;;;;;;5056882;28;19971;-81
2022/08/10 07:34:40;;;;;;;;;;;;;;;;;;5076308;28;19925;-81
2022/08/10 07:37:07;;;;;;;;;;;;;;;;;;5078006;28;19925;-81
2022/08/10 07:39:36;;;;;;;;;;;;;;;;;;5079302;28;19925;-81
2022/08/10 07:42:04;;;;;;;;;;;;;;;;;;5081748;28;19925;-80
2022/08/10 07:44:31;;;;;;;;;;;;;;;;;;5077591;28;19950;-81
2022/08/10 07:47:00;;;;;;;;;;;;;;;;;;5071587;28;19925;-80
2022/08/10 07:49:30;;;;;;;;;;;;;;;;;;5057940;28;19971;-81
2022/08/10 07:51:58;;;;;;;;;;;;;;;;;;5065923;28;19928;-80
2022/08/10 07:54:26;;;;;;;;;;;;;;;;;;5076927;28;19994;-81
2022/08/10 07:56:53;;;;;;;;;;;;;;;;;;5068224;28;19939;-80
2022/08/10 07:59:22;;;;;;;;;;;;;;;;;;5056599;28;19971;-80
2022/08/10 08:01:51;;;;;;;;;;;;;;;;;;5064066;28;19924;-82
2022/08/10 08:04:19;;;;;;;;;;;;;;;;;;5074072;28;19978;-82
2022/08/10 08:06:47;;;;;;;;;;;;;;;;;;5081881;28;20585;-82
2022/08/10 08:09:14;;;;;;;;;;;;;;;;;;5081987;28;20383;-81
2022/08/10 08:11:41;;;;;;;;;;;;;;;;;;5080000;28;20356;-81
2022/08/10 08:14:08;;;;;;;;;;;;;;;;;;5066428;28;19931;-82
2022/08/10 08:16:36;;;;;;;;;;;;;;;;;;5067188;28;19967;-82
2022/08/10 08:19:03;;;;;;;;;;;;;;;;;;5083172;28;19928;-83
2022/08/10 08:21:30;;;;;;;;;;;;;;;;;;5081598;28;19950;-82
2022/08/10 08:23:58;;;;;;;;;;;;;;;;;;5063804;28;20032;-84
2022/08/10 08:26:25;;;;;;;;;;;;;;;;;;5063204;28;19993;-85
2022/08/10 08:28:53;;;;;;;;;;;;;;;;;;5063142;28;19925;-84
2022/08/10 08:31:21;;;;;;;;;;;;;;;;;;5063012;28;19929;-83
2022/08/10 08:33:49;;;;;;;;;;;;;;;;;;5061038;28;19932;-88
2022/08/10 08:36:18;;;;;;;;;;;;;;;;;;5064858;28;20386;-88
2022/08/10 08:38:46;;;;;;;;;;;;;;;;;;5077574;28;19932;-83
2022/08/10 08:41:20;;;;;;;;;;;;;;;;;;5067070;28;19925;-83
2022/08/10 08:43:54;;;;;;;;;;;;;;;;;;5058517;28;19931;-82
2022/08/10 08:46:39;;;;;;;;;;;;;;;;;;5059449;28;19947;-82
2022/08/10 08:49:14;;;;;;;;;;;;;;;;;;5060075;28;19959;-81
2022/08/10 08:51:47;;;;;;;;;;;;;;;;;;5059561;28;20427;-83
2022/08/10 08:54:18;;;;;;;;;;;;;;;;;;5068764;28;19924;-86
2022/08/10 08:56:58;;;;;;;;;;;;;;;;;;5087461;28;19925;-87
2022/08/10 08:59:30;;;;;;;;;;;;;;;;;;5084163;28;19936;-82
2022/08/10 09:02:09;;;;;;;;;;;;;;;;;;5085518;28;19955;-82
2022/08/10 09:05:02;;;;;;;;;;;;;;;;;;5074203;28;19928;-81
2022/08/10 09:07:47;;;;;;;;;;;;;;;;;;5053831;28;19924;-84
2022/08/10 09:10:17;;;;;;;;;;;;;;;;;;5077427;28;19924;-80
2022/08/10 09:12:49;;;;;;;;;;;;;;;;;;5080890;28;20354;-86
2022/08/10 09:15:18;;;;;;;;;;;;;;;;;;5074802;28;19924;-82
2022/08/10 09:17:51;;;;;;;;;;;;;;;;;;5064357;28;20568;-80
2022/08/10 09:20:21;;;;;;;;;;;;;;;;;;5073364;28;20022;-79
2022/08/10 09:22:53;;;;;;;;;;;;;;;;;;5064930;28;19932;-79
2022/08/10 09:25:21;;;;;;;;;;;;;;;;;;5075554;28;20118;-78
2022/08/10 09:27:52;;;;;;;;;;;;;;;;;;5076387;28;19971;-80
2022/08/10 09:30:26;;;;;;;;;;;;;;;;;;5071016;28;19932;-81
2022/08/10 09:32:57;;;;;;;;;;;;;;;;;;5059937;28;20326;-76
2022/08/10 09:35:27;;;;;;;;;;;;;;;;;;5053068;28;20452;-77
2022/08/10 09:38:00;;;;;;;;;;;;;;;;;;5052234;28;20028;-77
2022/08/10 09:40:29;;;;;;;;;;;;;;;;;;5063415;28;20029;-77
2022/08/10 09:43:00;;;;;;;;;;;;;;;;;;5071983;28;20016;-77
2022/08/10 09:45:31;;;;;;;;;;;;;;;;;;5071434;28;20462;-76
2022/08/10 09:48:00;;;;;;;;;;;;;;;;;;5071978;28;20015;-76
2022/08/10 09:50:33;;;;;;;;;;;;;;;;;;5067322;28;20019;-77
2022/08/10 09:53:04;;;;;;;;;;;;;;;;;;5071183;28;19924;-76
2022/08/10 09:55:35;;;;;;;;;;;;;;;;;;5071453;28;20018;-77
2022/08/10 09:58:12;;;;;;;;;;;;;;;;;;5071698;28;19924;-77
2022/08/10 10:00:41;;;;;;;;;;;;;;;;;;5069190;28;19931;-79
2022/08/10 10:03:13;;;;;;;;;;;;;;;;;;5070796;28;19960;-78
2022/08/10 10:05:48;;;;;;;;;;;;;;;;;;5065829;28;19932;-79
2022/08/10 10:08:20;;;;;;;;;;;;;;;;;;5070142;28;19925;-78
2022/08/10 10:10:54;;;;;;;;;;;;;;;;;;5064358;28;20008;-78
2022/08/10 10:13:27;;;;;;;;;;;;;;;;;;5071745;28;20310;-78
2022/08/10 10:16:03;;;;;;;;;;;;;;;;;;5070644;28;20435;-77
2022/08/10 10:18:36;;;;;;;;;;;;;;;;;;5071249;28;19960;-77
2022/08/10 10:21:05;;;;;;;;;;;;;;;;;;5069663;28;19991;-78
2022/08/10 10:23:38;;;;;;;;;;;;;;;;;;5051031;28;20003;-78
2022/08/10 10:26:09;;;;;;;;;;;;;;;;;;5060647;28;19925;-77
2022/08/10 10:28:40;;;;;;;;;;;;;;;;;;5068299;28;19982;-77
2022/08/10 10:31:09;;;;;;;;;;;;;;;;;;5062963;28;19931;-78
2022/08/10 10:33:42;;;;;;;;;;;;;;;;;;5064920;28;20011;-78
2022/08/10 10:36:09;;;;;;;;;;;;;;;;;;5068427;28;19964;-78
2022/08/10 10:38:36;;;;;;;;;;;;;;;;;;5065837;28;19936;-78
2022/08/10 10:41:08;;;;;;;;;;;;;;;;;;5058805;28;19929;-78
2022/08/10 10:43:44;;;;;;;;;;;;;;;;;;5058480;28;20019;-78
2022/08/10 10:46:17;;;;;;;;;;;;;;;;;;5072188;28;20306;-78
2022/08/10 10:48:47;;;;;;;;;;;;;;;;;;5073326;28;19924;-77
2022/08/10 10:51:18;;;;;;;;;;;;;;;;;;5072697;28;19959;-78
2022/08/10 10:53:47;;;;;;;;;;;;;;;;;;5060746;28;19975;-79
2022/08/10 10:56:18;;;;;;;;;;;;;;;;;;5072307;28;20022;-78
2022/08/10 10:58:53;;;;;;;;;;;;;;;;;;5072859;28;20001;-79
2022/08/10 11:01:25;;;;;;;;;;;;;;;;;;5074753;28;19925;-77
2022/08/10 11:04:13;;;;;;;;;;;;;;;;;;5073757;28;19982;-79
2022/08/10 11:06:46;;;;;;;;;;;;;;;;;;5061342;28;20015;-78
2022/08/10 11:09:17;;;;;;;;;;;;;;;;;;5066367;28;20008;-78
2022/08/10 11:11:45;;;;;;;;;;;;;;;;;;5065060;28;20404;-78
2022/08/10 11:14:18;;;;;;;;;;;;;;;;;;5072507;28;21645;-83
2022/08/10 11:16:47;;;;;;;;;;;;;;;;;;5074078;28;19960;-84
2022/08/10 11:19:18;;;;;;;;;;;;;;;;;;5073281;28;19956;-80
2022/08/10 11:22:03;;;;;;;;;;;;;;;;;;5071104;28;19971;-80
2022/08/10 11:24:36;;;;;;;;;;;;;;;;;;5069843;28;19968;-80
2022/08/10 11:27:08;;;;;;;;;;;;;;;;;;5066173;28;19936;-79
2022/08/10 11:29:38;;;;;;;;;;;;;;;;;;5079487;28;19988;-82
2022/08/10 11:32:10;;;;;;;;;;;;;;;;;;5078035;28;20447;-79
2022/08/10 11:34:41;;;;;;;;;;;;;;;;;;5062828;28;19959;-78
2022/08/10 11:37:15;;;;;;;;;;;;;;;;;;5071872;28;20357;-80
2022/08/10 11:39:47;;;;;;;;;;;;;;;;;;5070728;28;19963;-79
2022/08/10 11:42:19;;;;;;;;;;;;;;;;;;5066169;28;20387;-78
2022/08/10 11:44:49;;;;;;;;;;;;;;;;;;5071097;28;20575;-81
2022/08/10 11:47:18;;;;;;;;;;;;;;;;;;5064143;28;20440;-78
2022/08/10 11:49:46;;;;;;;;;;;;;;;;;;5061631;28;20019;-79
2022/08/10 11:52:14;;;;;;;;;;;;;;;;;;5065653;28;19979;-79
2022/08/10 11:54:42;;;;;;;;;;;;;;;;;;5070089;28;19936;-78
2022/08/10 11:57:09;;;;;;;;;;;;;;;;;;5069666;28;19925;-80
2022/08/10 12:02:23;;;;;;;;;;;;;;;;;;5062622;28;19952;-78
2022/08/10 12:04:51;;;;;;;;;;;;;;;;;;5063711;28;20368;-78
2022/08/10 12:07:20;;;;;;;;;;;;;;;;;;5054003;28;19925;-78
2022/08/10 12:09:47;;;;;;;;;;;;;;;;;;5061642;28;19925;-79
2022/08/10 12:12:13;;;;;;;;;;;;;;;;;;5071276;28;19974;-79
2022/08/10 12:14:43;;;;;;;;;;;;;;;;;;5063313;28;19975;-79
2022/08/10 12:17:13;;;;;;;;;;;;;;;;;;5065637;28;19972;-79
2022/08/10 12:19:42;;;;;;;;;;;;;;;;;;5069119;28;20322;-79
2022/08/10 12:22:11;;;;;;;;;;;;;;;;;;5067205;28;19925;-79
2022/08/10 12:24:42;;;;;;;;;;;;;;;;;;5074051;28;19924;-79
2022/08/10 12:27:10;;;;;;;;;;;;;;;;;;5073898;28;20011;-79
2022/08/10 12:29:42;;;;;;;;;;;;;;;;;;5075126;28;19986;-79
2022/08/10 12:32:11;;;;;;;;;;;;;;;;;;5069306;28;19991;-78
2022/08/10 12:34:41;;;;;;;;;;;;;;;;;;5073601;28;20008;-78
2022/08/10 12:37:14;;;;;;;;;;;;;;;;;;5065291;28;19964;-78
2022/08/10 12:39:50;;;;;;;;;;;;;;;;;;5066288;28;19959;-79
2022/08/10 12:42:19;;;;;;;;;;;;;;;;;;5075899;28;19943;-78
2022/08/10 12:44:48;;;;;;;;;;;;;;;;;;5069511;28;19928;-79
2022/08/10 12:47:19;;;;;;;;;;;;;;;;;;5057294;28;19964;-79
2022/08/10 12:49:50;;;;;;;;;;;;;;;;;;5073214;28;19972;-78
2022/08/10 12:52:19;;;;;;;;;;;;;;;;;;5080767;28;19960;-78
2022/08/10 12:54:47;;;;;;;;;;;;;;;;;;5090918;28;19930;-79
2022/08/10 12:57:15;;;;;;;;;;;;;;;;;;5082047;28;19925;-78
2022/08/10 12:59:42;;;;;;;;;;;;;;;;;;5075949;28;19932;-79
2022/08/10 13:02:11;;;;;;;;;;;;;;;;;;5071214;28;19924;-80
2022/08/10 13:04:41;;;;;;;;;;;;;;;;;;5072902;28;19975;-78
2022/08/10 13:07:09;;;;;;;;;;;;;;;;;;5073628;28;19924;-79
2022/08/10 13:09:36;;;;;;;;;;;;;;;;;;5063513;28;19980;-79
2022/08/10 13:12:04;;;;;;;;;;;;;;;;;;5072875;28;19924;-79
2022/08/10 13:14:32;;;;;;;;;;;;;;;;;;5067952;28;19979;-79
2022/08/10 13:17:00;;;;;;;;;;;;;;;;;;5072595;28;19924;-79
2022/08/10 13:19:27;;;;;;;;;;;;;;;;;;5070383;28;19963;-78
2022/08/10 13:21:56;;;;;;;;;;;;;;;;;;5064372;28;20019;-79
2022/08/10 13:24:25;;;;;;;;;;;;;;;;;;5072688;28;19983;-78
2022/08/10 13:26:53;;;;;;;;;;;;;;;;;;5075976;28;19978;-78
2022/08/10 13:29:21;;;;;;;;;;;;;;;;;;5074687;28;19954;-78
2022/08/10 13:31:53;;;;;;;;;;;;;;;;;;5070651;28;20014;-78
2022/08/10 13:34:21;;;;;;;;;;;;;;;;;;5069662;28;19925;-79
2022/08/10 13:36:49;;;;;;;;;;;;;;;;;;5071978;28;20309;-78
2022/08/10 13:39:18;;;;;;;;;;;;;;;;;;5066048;28;19925;-78
2022/08/10 13:41:46;;;;;;;;;;;;;;;;;;5071467;28;20008;-79
2022/08/10 13:44:15;;;;;;;;;;;;;;;;;;5071185;28;19924;-78
2022/08/10 13:46:48;;;;;;;;;;;;;;;;;;5063411;28;20426;-79
2022/08/10 13:49:14;;;;;;;;;;;;;;;;;;5062781;28;19960;-78
2022/08/10 13:51:41;;;;;;;;;;;;;;;;;;5069799;28;20023;-79
2022/08/10 13:54:10;;;;;;;;;;;;;;;;;;5071146;28;20725;-79
2022/08/10 13:56:37;;;;;;;;;;;;;;;;;;5070577;28;19928;-79
2022/08/10 13:59:05;;;;;;;;;;;;;;;;;;5071676;28;19933;-79
2022/08/10 14:01:35;;;;;;;;;;;;;;;;;;5070224;28;20419;-79
2022/08/10 14:04:04;;;;;;;;;;;;;;;;;;5061195;28;19931;-79
2022/08/10 14:06:32;;;;;;;;;;;;;;;;;;5067211;28;19970;-79
2022/08/10 14:09:01;;;;;;;;;;;;;;;;;;5070839;28;19947;-79
2022/08/10 14:11:28;;;;;;;;;;;;;;;;;;5065066;28;19932;-79
2022/08/10 14:13:58;;;;;;;;;;;;;;;;;;5070895;28;19928;-78
2022/08/10 14:16:25;;;;;;;;;;;;;;;;;;5063642;28;19924;-79
2022/08/10 14:18:54;;;;;;;;;;;;;;;;;;5073735;28;19968;-80
2022/08/10 14:21:21;;;;;;;;;;;;;;;;;;5070595;28;20012;-81
2022/08/10 14:23:48;;;;;;;;;;;;;;;;;;5070466;28;19924;-80
2022/08/10 14:26:16;;;;;;;;;;;;;;;;;;5068601;28;19924;-81
2022/08/10 14:28:43;;;;;;;;;;;;;;;;;;5071173;28;19994;-80
2022/08/10 14:31:11;;;;;;;;;;;;;;;;;;5071141;28;20046;-81
2022/08/10 14:33:41;;;;;;;;;;;;;;;;;;5069573;28;20603;-80
2022/08/10 14:36:10;;;;;;;;;;;;;;;;;;5056838;28;20021;-80
2022/08/10 14:41:40;;;;;;;;;;;;;;;;;;5067329;28;20002;-80
2022/08/10 14:44:09;;;;;;;;;;;;;;;;;;5072434;28;19928;-79
2022/08/10 14:46:38;;;;;;;;;;;;;;;;;;5073921;28;19998;-79
2022/08/10 14:49:05;;;;;;;;;;;;;;;;;;5072723;28;20019;-80
2022/08/10 14:51:34;;;;;;;;;;;;;;;;;;5067847;28;19932;-79
2022/08/10 14:54:03;;;;;;;;;;;;;;;;;;5065128;28;20023;-79
2022/08/10 14:56:31;;;;;;;;;;;;;;;;;;5061825;28;20391;-79
2022/08/10 14:58:59;;;;;;;;;;;;;;;;;;5066859;28;20405;-80
2022/08/10 15:01:25;;;;;;;;;;;;;;;;;;5072769;28;20019;-80
2022/08/10 15:03:53;;;;;;;;;;;;;;;;;;5060898;28;19971;-80
2022/08/10 15:06:21;;;;;;;;;;;;;;;;;;5069049;28;19924;-80
2022/08/10 15:08:49;;;;;;;;;;;;;;;;;;5069319;28;19924;-79
2022/08/10 15:11:17;;;;;;;;;;;;;;;;;;5073812;28;20079;-79
2022/08/10 15:13:44;;;;;;;;;;;;;;;;;;5075266;28;19974;-79
2022/08/10 15:16:10;;;;;;;;;;;;;;;;;;5076385;28;20007;-79
2022/08/10 15:18:40;;;;;;;;;;;;;;;;;;5070091;28;19971;-81
2022/08/10 15:21:08;;;;;;;;;;;;;;;;;;5071422;28;19924;-81
2022/08/10 15:23:35;;;;;;;;;;;;;;;;;;5073411;28;19924;-80
2022/08/10 15:26:05;;;;;;;;;;;;;;;;;;5073321;28;20462;-80
2022/08/10 15:28:33;;;;;;;;;;;;;;;;;;5073075;28;19972;-80
2022/08/10 15:31:00;;;;;;;;;;;;;;;;;;5071256;28;19925;-79
2022/08/10 15:39:00;;;;;;;;;;;;;;;;;;5072084;28;20393;-79
2022/08/10 15:41:37;;;;;;;;;;;;;;;;;;5069265;28;20016;-78
2022/08/10 15:44:03;;;;;;;;;;;;;;;;;;5071035;28;20032;-78
2022/08/10 15:46:33;;;;;;;;;;;;;;;;;;5069438;28;20462;-80
2022/08/10 15:49:01;;;;;;;;;;;;;;;;;;5073716;28;20011;-79
2022/08/10 15:51:29;;;;;;;;;;;;;;;;;;5072011;28;20023;-79
2022/08/10 15:54:00;;;;;;;;;;;;;;;;;;5063786;28;19925;-79
2022/08/10 15:56:29;;;;;;;;;;;;;;;;;;5073593;28;20089;-78
2022/08/10 15:59:01;;;;;;;;;;;;;;;;;;5057267;28;20016;-79
2022/08/10 16:01:34;;;;;;;;;;;;;;;;;;5075798;28;20398;-79
2022/08/10 16:04:02;;;;;;;;;;;;;;;;;;5076916;28;20452;-78
2022/08/10 16:06:31;;;;;;;;;;;;;;;;;;5070037;28;20019;-78
2022/08/10 16:08:59;;;;;;;;;;;;;;;;;;5073195;28;19952;-78
2022/08/10 16:11:28;;;;;;;;;;;;;;;;;;5074103;28;19931;-79
2022/08/10 16:13:55;;;;;;;;;;;;;;;;;;5064366;28;20007;-79
2022/08/10 16:16:23;;;;;;;;;;;;;;;;;;5073914;28;19967;-78
2022/08/10 16:18:50;;;;;;;;;;;;;;;;;;5066669;28;20016;-78
2022/08/10 16:21:18;;;;;;;;;;;;;;;;;;5070214;28;20455;-79
2022/08/10 16:23:46;;;;;;;;;;;;;;;;;;5074878;28;19930;-81
2022/08/10 16:26:15;;;;;;;;;;;;;;;;;;5078667;28;19928;-79
2022/08/10 16:28:43;;;;;;;;;;;;;;;;;;5082743;22;19979;-80
2022/08/10 16:31:13;;;;;;;;;;;;;;;;;;5060359;28;20351;-80
2022/08/10 16:33:42;;;;;;;;;;;;;;;;;;5058339;28;19931;-80
2022/08/10 16:36:10;;;;;;;;;;;;;;;;;;5061312;28;20031;-79
2022/08/10 16:38:37;;;;;;;;;;;;;;;;;;5061306;28;19952;-80
2022/08/10 16:41:05;;;;;;;;;;;;;;;;;;5061748;28;19967;-80
2022/08/10 16:43:32;;;;;;;;;;;;;;;;;;5061587;28;19979;-80
2022/08/10 16:46:00;;;;;;;;;;;;;;;;;;5062141;28;19925;-80
2022/08/10 16:48:31;;;;;;;;;;;;;;;;;;5061147;28;19956;-80
2022/08/10 16:51:00;;;;;;;;;;;;;;;;;;5060641;28;19971;-80
2022/08/10 16:53:27;;;;;;;;;;;;;;;;;;5060935;28;19925;-80
2022/08/10 16:55:55;;;;;;;;;;;;;;;;;;5059870;28;19936;-80
2022/08/10 16:58:26;;;;;;;;;;;;;;;;;;5061211;28;20020;-80
2022/08/10 17:00:53;;;;;;;;;;;;;;;;;;5060006;28;19924;-81
2022/08/10 17:03:26;;;;;;;;;;;;;;;;;;5060840;28;19979;-80
2022/08/10 17:05:53;;;;;;;;;;;;;;;;;;5063339;28;19931;-79
2022/08/10 17:08:22;;;;;;;;;;;;;;;;;;5064557;28;20003;-80
2022/08/10 17:10:49;;;;;;;;;;;;;;;;;;5062893;28;19976;-80
2022/08/10 17:13:20;;;;;;;;;;;;;;;;;;5061948;28;19956;-79